Time;durP1;ratioP1;P1;durP2;ratioP2;P2;SDS_P1;SDS_P2;PMS_P1;PMS_P2;Temp;Humidity;BMP_temperature;BMP_pressure;BME280_temperature;BME280_humidity;BME280_pressure;Samples;Min_cycle;Max_cycle;Signal;HPM_P1;HPM_P2
2023/01/16 00:01:51;;;;;;;2.23;1.30;;;5.80;47.70;;;;;;20677;6736;305031;-74
2023/01/16 00:04:18;;;;;;;2.20;1.10;;;5.80;47.70;;;;;;20897;6721;119807;-74
2023/01/16 00:06:54;;;;;;;2.53;1.10;;;5.80;48.10;;;;;;20891;6736;121209;-74
2023/01/16 00:09:30;;;;;;;2.00;0.87;;;5.60;48.90;;;;;;20788;6736;117636;-74
2023/01/16 00:12:05;;;;;;;1.10;0.90;;;5.30;49.50;;;;;;20858;6740;116990;-73
2023/01/16 00:14:41;;;;;;;2.83;1.00;;;5.20;50.00;;;;;;20662;6739;277565;-73
2023/01/16 00:17:16;;;;;;;2.13;0.90;;;5.30;48.80;;;;;;20694;6728;285451;-73
2023/01/16 00:19:53;;;;;;;1.87;0.97;;;5.70;47.80;;;;;;20750;6728;116919;-73
2023/01/16 00:22:29;;;;;;;2.17;1.00;;;5.70;48.20;;;;;;20915;6723;117360;-74
2023/01/16 00:25:05;;;;;;;2.62;1.27;;;5.50;48.90;;;;;;20643;6742;326913;-77
2023/01/16 00:27:41;;;;;;;1.50;0.90;;;5.50;48.60;;;;;;20839;6753;117360;-73
2023/01/16 00:30:25;;;;;;;1.13;1.00;;;5.50;48.60;;;;;;20631;6774;121103;-75
2023/01/16 00:32:52;;;;;;;2.13;1.00;;;5.30;49.30;;;;;;20929;6730;118655;-74
2023/01/16 00:35:28;;;;;;;2.00;1.07;;;5.30;49.20;;;;;;20697;6745;305834;-73
2023/01/16 00:38:05;;;;;;;1.20;1.00;;;5.30;49.20;;;;;;20892;6750;116731;-74
2023/01/16 00:40:42;;;;;;;2.97;0.80;;;5.30;49.40;;;;;;20621;6748;276800;-74
2023/01/16 00:43:18;;;;;;;2.75;1.02;;;5.50;48.90;;;;;;20658;6746;310160;-74
2023/01/16 00:45:54;;;;;;;3.47;0.98;;;5.80;48.10;;;;;;20750;6718;304557;-74
2023/01/16 00:48:29;;;;;;;0.73;0.73;;;6.10;47.40;;;;;;20898;6723;117491;-74
2023/01/16 00:51:05;;;;;;;1.73;1.23;;;6.00;47.80;;;;;;20710;6733;277018;-74
2023/01/16 00:53:41;;;;;;;1.62;1.10;;;6.30;47.20;;;;;;20688;6728;305780;-74
2023/01/16 00:56:17;;;;;;;1.70;1.15;;;6.30;47.20;;;;;;20605;6750;295112;-75
2023/01/16 00:58:52;;;;;;;1.77;1.00;;;6.60;46.90;;;;;;20831;6755;118638;-74
2023/01/16 01:01:31;;;;;;;2.60;0.90;;;6.40;47.40;;;;;;20914;6738;116838;-73
2023/01/16 01:04:03;;;;;;;1.73;1.20;;;6.10;48.30;;;;;;20948;6734;116893;-73
2023/01/16 01:06:41;;;;;;;2.07;0.87;;;5.90;49.10;;;;;;20870;6737;117486;-74
2023/01/16 01:09:14;;;;;;;1.40;1.00;;;5.70;49.70;;;;;;20762;6755;117290;-74
2023/01/16 01:11:50;;;;;;;1.63;1.00;;;5.60;50.20;;;;;;20658;6759;277746;-74
2023/01/16 01:14:27;;;;;;;1.73;1.07;;;5.80;49.10;;;;;;20657;6741;327256;-74
2023/01/16 01:17:03;;;;;;;1.97;1.40;;;6.60;47.60;;;;;;20667;6736;292894;-74
2023/01/16 01:19:39;;;;;;;1.40;1.30;;;6.50;47.50;;;;;;20736;6760;117179;-74
2023/01/16 01:22:15;;;;;;;2.37;1.10;;;6.50;48.00;;;;;;20965;6727;119599;-74
2023/01/16 01:24:50;;;;;;;1.25;1.10;;;6.20;48.60;;;;;;20691;6742;305941;-74
2023/01/16 01:27:26;;;;;;;2.73;1.27;;;6.30;47.40;;;;;;20874;6742;116836;-74
2023/01/16 01:30:01;;;;;;;2.17;1.10;;;6.20;47.70;;;;;;20723;6750;117229;-74
2023/01/16 01:32:38;;;;;;;2.83;1.10;;;5.90;48.40;;;;;;20860;6738;116903;-74
2023/01/16 01:35:22;;;;;;;1.70;1.10;;;5.70;49.00;;;;;;20865;6742;117000;-74
2023/01/16 01:37:50;;;;;;;2.67;1.17;;;5.50;49.50;;;;;;20676;6735;335806;-74
2023/01/16 01:40:25;;;;;;;2.08;1.20;;;5.60;48.60;;;;;;20519;6728;283653;-74
2023/01/16 01:43:00;;;;;;;1.40;1.10;;;6.00;47.80;;;;;;20875;6740;118295;-75
2023/01/16 01:45:36;;;;;;;3.40;1.37;;;5.90;48.10;;;;;;20887;6729;116674;-74
2023/01/16 01:48:11;;;;;;;1.40;0.87;;;5.60;48.70;;;;;;20889;6732;118181;-74
2023/01/16 01:51:07;;;;;;;1.23;1.13;;;5.30;49.30;;;;;;20789;6761;118703;-75
2023/01/16 01:53:46;;;;;;;2.20;1.10;;;5.10;49.80;;;;;;20801;6751;117588;-74
2023/01/16 01:56:38;;;;;;;2.13;1.20;;;4.90;50.20;;;;;;20804;6750;141743;-75
2023/01/16 01:59:23;;;;;;;2.13;1.10;;;4.80;50.60;;;;;;20537;6750;312018;-74
2023/01/16 02:01:59;;;;;;;1.13;0.80;;;5.10;49.80;;;;;;20866;6740;121138;-72
2023/01/16 02:04:35;;;;;;;2.87;1.27;;;5.10;49.80;;;;;;20812;6740;116821;-74
2023/01/16 02:07:11;;;;;;;1.47;1.20;;;4.80;50.70;;;;;;20786;6761;118001;-74
2023/01/16 02:09:47;;;;;;;2.37;1.30;;;4.70;50.60;;;;;;20440;6792;279973;-74
2023/01/16 02:12:24;;;;;;;2.12;1.17;;;5.40;49.00;;;;;;20582;6740;311671;-73
2023/01/16 02:15:01;;;;;;;1.40;1.10;;;5.40;49.00;;;;;;20818;6758;119784;-74
2023/01/16 02:20:33;;;;;;;1.73;1.20;;;5.50;48.80;;;;;;20332;6769;313120;-74
2023/01/16 02:23:14;;;;;;;2.30;1.13;;;5.70;47.90;;;;;;20875;6737;117006;-74
2023/01/16 02:26:13;;;;;;;1.60;1.00;;;5.60;48.30;;;;;;20854;6789;118039;-74
2023/01/16 02:29:18;;;;;;;1.13;0.80;;;5.30;49.10;;;;;;20836;6737;117231;-75
2023/01/16 02:32:03;;;;;;;2.03;1.20;;;5.00;49.80;;;;;;20648;6727;275561;-75
2023/01/16 02:34:59;;;;;;;2.07;0.93;;;5.10;49.20;;;;;;20834;6727;119243;-76
2023/01/16 02:37:45;;;;;;;4.00;1.03;;;5.10;49.20;;;;;;20862;6727;117205;-73
2023/01/16 02:40:41;;;;;;;1.23;0.90;;;4.90;50.00;;;;;;20414;6752;309099;-73
2023/01/16 02:43:35;;;;;;;1.30;0.93;;;5.00;49.80;;;;;;20867;6737;116589;-78
2023/01/16 02:46:33;;;;;;;1.50;1.10;;;5.00;49.70;;;;;;20615;6737;306477;-74
2023/01/16 02:49:08;;;;;;;1.27;1.07;;;5.20;49.20;;;;;;20573;6737;325323;-74
2023/01/16 02:52:04;;;;;;;3.40;1.30;;;5.50;48.40;;;;;;20881;6737;117083;-76
2023/01/16 02:54:47;;;;;;;1.13;1.00;;;5.00;49.60;;;;;;20186;6797;119908;-75
2023/01/16 02:57:23;;;;;;;1.33;1.20;;;4.80;50.30;;;;;;20878;6737;116607;-77
2023/01/16 03:00:02;;;;;;;1.17;0.73;;;4.70;50.20;;;;;;20672;6737;119464;-74
2023/01/16 03:02:34;;;;;;;1.57;0.90;;;4.60;50.80;;;;;;20772;6748;121153;-75
2023/01/16 03:05:10;;;;;;;1.23;0.90;;;4.50;51.30;;;;;;20781;6770;120834;-74
2023/01/16 03:08:02;;;;;;;1.20;1.10;;;4.30;51.50;;;;;;20896;6748;117293;-75
2023/01/16 03:10:38;;;;;;;2.22;1.20;;;4.30;51.90;;;;;;20470;6807;336256;-74
2023/01/16 03:13:20;;;;;;;1.67;1.30;;;4.50;50.90;;;;;;20647;6748;306521;-76
2023/01/16 03:16:13;;;;;;;2.03;0.97;;;4.90;50.00;;;;;;20851;6740;117066;-78
2023/01/16 03:19:02;;;;;;;0.83;0.83;;;4.90;50.00;;;;;;20792;6750;117790;-77
2023/01/16 03:21:41;;;;;;;1.60;1.07;;;4.70;50.50;;;;;;20617;6757;277164;-74
2023/01/16 03:24:30;;;;;;;1.10;1.00;;;5.20;49.30;;;;;;20635;6748;305439;-75
2023/01/16 03:27:12;;;;;;;1.83;0.90;;;5.10;49.20;;;;;;20670;6745;311173;-73
2023/01/16 03:29:54;;;;;;;1.48;0.90;;;5.50;48.50;;;;;;20544;6744;333461;-77
2023/01/16 03:32:33;;;;;;;1.30;0.90;;;5.70;48.00;;;;;;20618;6757;313704;-75
2023/01/16 03:35:12;;;;;;;1.73;1.00;;;5.90;47.10;;;;;;20655;6748;335615;-74
2023/01/16 03:37:52;;;;;;;1.00;0.80;;;5.90;47.10;;;;;;20846;6742;117379;-74
2023/01/16 03:40:28;;;;;;;1.60;0.90;;;5.70;47.80;;;;;;20642;6756;118463;-75
2023/01/16 03:43:17;;;;;;;1.50;1.17;;;5.20;48.70;;;;;;20909;6740;117231;-74
2023/01/16 03:45:55;;;;;;;1.37;0.87;;;4.90;49.50;;;;;;20907;6725;116647;-75
2023/01/16 03:48:31;;;;;;;2.10;0.90;;;4.60;50.20;;;;;;20817;6759;118101;-75
2023/01/16 03:51:06;;;;;;;2.13;1.07;;;4.50;50.80;;;;;;20858;6739;116790;-74
2023/01/16 03:53:42;;;;;;;1.93;1.20;;;4.40;51.30;;;;;;20588;6766;277281;-75
2023/01/16 03:56:25;;;;;;;1.50;0.83;;;5.10;49.50;;;;;;20644;6747;277192;-75
2023/01/16 03:59:01;;;;;;;1.47;1.07;;;5.10;49.40;;;;;;20582;6759;307154;-75
2023/01/16 04:01:54;;;;;;;1.57;0.90;;;5.50;48.40;;;;;;20832;6762;117011;-75
2023/01/16 04:04:52;;;;;;;2.00;0.87;;;5.20;49.50;;;;;;20759;6780;118504;-73
2023/01/16 04:07:39;;;;;;;1.10;0.90;;;5.10;49.40;;;;;;20792;6779;116886;-74
2023/01/16 04:10:21;;;;;;;2.33;0.90;;;4.90;50.10;;;;;;20097;6893;313765;-75
2023/01/16 04:12:59;;;;;;;1.13;1.00;;;5.10;49.30;;;;;;20790;6772;116970;-74
2023/01/16 04:15:35;;;;;;;1.62;0.90;;;5.00;49.40;;;;;;20551;6763;336492;-75
2023/01/16 04:18:10;;;;;;;1.80;1.10;;;5.20;48.90;;;;;;20587;6764;336471;-74
2023/01/16 04:20:46;;;;;;;1.00;0.90;;;5.50;48.30;;;;;;20718;6783;117247;-73
2023/01/16 04:23:21;;;;;;;2.00;1.10;;;5.40;48.60;;;;;;20711;6739;333689;-76
2023/01/16 04:25:57;;;;;;;1.70;0.93;;;5.40;48.30;;;;;;20800;6754;117444;-74
2023/01/16 04:28:32;;;;;;;1.50;0.90;;;5.30;48.80;;;;;;20521;6772;309240;-74
2023/01/16 04:31:08;;;;;;;1.45;0.80;;;5.30;48.40;;;;;;20642;6739;338280;-74
2023/01/16 04:33:44;;;;;;;1.80;0.90;;;5.60;48.50;;;;;;20655;6729;336576;-74
2023/01/16 04:36:19;;;;;;;1.73;1.02;;;5.80;47.40;;;;;;20593;6753;336162;-75
2023/01/16 04:38:55;;;;;;;1.67;0.98;;;6.00;47.30;;;;;;20607;6735;310864;-74
2023/01/16 04:41:36;;;;;;;1.50;0.90;;;6.10;46.80;;;;;;20553;6760;277210;-75
2023/01/16 04:44:12;;;;;;;1.83;1.05;;;6.20;46.80;;;;;;20616;6768;310204;-74
2023/01/16 04:46:47;;;;;;;2.53;0.80;;;6.20;46.60;;;;;;20924;6720;116610;-73
2023/01/16 04:49:27;;;;;;;2.10;0.97;;;5.90;47.20;;;;;;20834;6720;279054;-73
2023/01/16 04:51:59;;;;;;;2.20;0.85;;;5.50;48.10;;;;;;20684;6734;309963;-74
2023/01/16 04:54:35;;;;;;;2.07;1.00;;;5.50;47.90;;;;;;20879;6734;117705;-74
2023/01/16 04:57:11;;;;;;;1.47;0.80;;;5.30;48.30;;;;;;20895;6734;120925;-74
2023/01/16 04:59:46;;;;;;;1.33;0.97;;;5.00;49.00;;;;;;20593;6734;307123;-74
2023/01/16 05:02:22;;;;;;;1.43;0.90;;;5.10;48.90;;;;;;20882;6734;118206;-75
2023/01/16 05:04:57;;;;;;;1.70;0.90;;;5.00;48.90;;;;;;20905;6734;116633;-73
2023/01/16 05:07:35;;;;;;;1.33;0.93;;;4.80;49.50;;;;;;20683;6734;276352;-74
2023/01/16 05:10:10;;;;;;;1.52;0.90;;;5.30;48.40;;;;;;20569;6734;341476;-75
2023/01/16 05:12:45;;;;;;;0.80;0.50;;;5.20;48.30;;;;;;20880;6733;116630;-74
2023/01/16 05:15:21;;;;;;;1.57;1.00;;;5.20;48.40;;;;;;20686;6734;308319;-75
2023/01/16 05:17:58;;;;;;;2.63;1.20;;;5.20;48.40;;;;;;20899;6734;116632;-75
2023/01/16 05:20:33;;;;;;;1.13;1.10;;;5.10;48.80;;;;;;20662;6734;117561;-74
2023/01/16 05:23:10;;;;;;;1.37;0.80;;;4.80;49.40;;;;;;20896;6734;117798;-74
2023/01/16 05:25:45;;;;;;;0.80;0.80;;;4.60;50.00;;;;;;20901;6734;119737;-74
2023/01/16 05:28:22;;;;;;;1.20;0.93;;;4.40;50.40;;;;;;20861;6734;117102;-75
2023/01/16 05:30:57;;;;;;;1.10;0.90;;;4.30;50.80;;;;;;20669;6734;275891;-76
2023/01/16 05:33:34;;;;;;;1.80;1.07;;;4.50;50.00;;;;;;20637;6734;305496;-80
2023/01/16 05:36:10;;;;;;;2.47;1.20;;;4.90;49.00;;;;;;20876;6734;116619;-76
2023/01/16 05:38:46;;;;;;;1.73;0.97;;;4.90;49.10;;;;;;20616;6734;312520;-73
2023/01/16 05:41:21;;;;;;;1.50;1.40;;;5.00;48.60;;;;;;20897;6734;118222;-76
2023/01/16 05:43:57;;;;;;;2.13;1.20;;;4.90;48.80;;;;;;20671;6734;277390;-77
2023/01/16 05:46:32;;;;;;;2.93;0.90;;;5.00;48.40;;;;;;20878;6734;118080;-75
2023/01/16 05:49:11;;;;;;;1.20;1.10;;;4.90;48.70;;;;;;20833;6734;121325;-74
2023/01/16 05:51:45;;;;;;;2.27;1.50;;;4.80;49.10;;;;;;20665;6734;332487;-73
2023/01/16 05:54:24;;;;;;;1.30;1.20;;;4.80;49.10;;;;;;20859;6733;116977;-76
2023/01/16 05:56:56;;;;;;;2.17;1.47;;;4.80;49.20;;;;;;20882;6733;116638;-73
2023/01/16 05:59:34;;;;;;;1.73;1.50;;;4.50;49.60;;;;;;20608;6733;277951;-73
2023/01/16 06:02:09;;;;;;;1.33;1.20;;;4.70;49.50;;;;;;20903;6734;117569;-74
2023/01/16 06:04:46;;;;;;;1.43;1.10;;;4.70;49.50;;;;;;20888;6734;116693;-74
2023/01/16 06:07:21;;;;;;;2.93;1.30;;;4.50;50.00;;;;;;20636;6790;288738;-72
2023/01/16 06:10:00;;;;;;;1.33;1.13;;;4.60;49.50;;;;;;20794;6734;117580;-73
2023/01/16 06:12:33;;;;;;;3.70;1.03;;;4.60;49.60;;;;;;20849;6734;116831;-72
2023/01/16 06:15:08;;;;;;;1.90;1.40;;;4.40;50.10;;;;;;20670;6734;277026;-73
2023/01/16 06:17:44;;;;;;;46.80;31.83;;;4.60;49.60;;;;;;20650;6734;280906;-73
2023/01/16 06:20:22;;;;;;;36.17;21.23;;;5.00;48.70;;;;;;20707;6734;119994;-73
2023/01/16 06:22:56;;;;;;;23.38;20.17;;;4.90;48.80;;;;;;20651;6734;306206;-75
2023/01/16 06:25:32;;;;;;;3.53;3.23;;;5.00;48.40;;;;;;20862;6734;117552;-76
2023/01/16 06:28:07;;;;;;;3.87;2.30;;;4.90;48.60;;;;;;20857;6734;119547;-75
2023/01/16 06:30:43;;;;;;;2.80;1.70;;;4.80;48.80;;;;;;20459;6790;277842;-74
2023/01/16 06:33:20;;;;;;;2.40;2.20;;;4.70;48.70;;;;;;20682;6735;304680;-73
2023/01/16 06:35:56;;;;;;;3.70;3.43;;;5.10;48.00;;;;;;20842;6739;116806;-73
2023/01/16 06:38:31;;;;;;;3.43;3.23;;;5.00;48.20;;;;;;20615;6753;307778;-72
2023/01/16 06:41:07;;;;;;;2.23;1.90;;;5.10;47.80;;;;;;20905;6746;116372;-71
2023/01/16 06:43:42;;;;;;;3.47;3.17;;;5.00;48.10;;;;;;20805;6761;116762;-75
2023/01/16 06:46:20;;;;;;;2.78;2.03;;;4.90;48.20;;;;;;20551;6763;306922;-72
2023/01/16 06:48:56;;;;;;;2.07;1.50;;;4.90;48.20;;;;;;20722;6768;117344;-75
2023/01/16 06:51:31;;;;;;;1.60;1.50;;;4.90;48.40;;;;;;20853;6743;116882;-76
2023/01/16 06:54:07;;;;;;;1.73;1.62;;;4.70;49.00;;;;;;20639;6743;338227;-75
2023/01/16 06:56:43;;;;;;;1.85;1.60;;;4.80;48.50;;;;;;20633;6743;335521;-76
2023/01/16 06:59:18;;;;;;;2.47;1.57;;;5.10;47.70;;;;;;20777;6744;117515;-76
2023/01/16 07:01:54;;;;;;;1.87;1.77;;;5.10;48.00;;;;;;20865;6743;118113;-75
2023/01/16 07:04:29;;;;;;;1.33;1.30;;;4.90;48.60;;;;;;20867;6733;123234;-77
2023/01/16 07:07:06;;;;;;;1.85;1.75;;;4.70;49.30;;;;;;20658;6739;335103;-75
2023/01/16 07:09:43;;;;;;;1.40;1.30;;;4.80;48.80;;;;;;20786;6739;117013;-77
2023/01/16 07:12:19;;;;;;;4.73;4.33;;;4.80;48.90;;;;;;20903;6724;123619;-77
2023/01/16 07:23:34;;;;;;;3.92;3.60;;;5.10;47.80;;;;;;20660;6736;338256;-77
2023/01/16 07:26:10;;;;;;;4.67;4.27;;;5.50;46.90;;;;;;20852;6728;116696;-77
2023/01/16 07:28:45;;;;;;;1.48;1.37;;;5.40;47.20;;;;;;20586;6741;311110;-76
2023/01/16 07:31:21;;;;;;;3.03;1.30;;;5.50;46.70;;;;;;20825;6755;117205;-76
2023/01/16 07:33:56;;;;;;;0.90;0.90;;;5.40;47.20;;;;;;20789;6752;117480;-77
2023/01/16 07:36:32;;;;;;;3.80;2.97;;;5.20;48.00;;;;;;20791;6757;129267;-77
2023/01/16 07:39:08;;;;;;;11.07;7.70;;;5.00;48.60;;;;;;20752;6759;117822;-76
2023/01/16 07:41:43;;;;;;;1.53;1.40;;;4.90;49.00;;;;;;20826;6745;117225;-76
2023/01/16 07:44:19;;;;;;;1.50;1.30;;;4.80;49.40;;;;;;20666;6729;334946;-77
2023/01/16 07:46:54;;;;;;;2.80;2.57;;;5.00;47.90;;;;;;20881;6738;116844;-77
2023/01/16 07:49:30;;;;;;;2.15;1.37;;;5.10;48.00;;;;;;20559;6738;337762;-76
2023/01/16 07:52:05;;;;;;;1.17;1.12;;;5.30;47.30;;;;;;20730;6720;306032;-78
2023/01/16 07:54:41;;;;;;;1.15;1.00;;;5.70;46.30;;;;;;20713;6720;335285;-76
2023/01/16 07:57:17;;;;;;;1.00;1.00;;;6.00;45.30;;;;;;20945;6720;117173;-76
2023/01/16 07:59:53;;;;;;;1.40;0.95;;;5.90;45.20;;;;;;20636;6720;277919;-76
2023/01/16 08:02:29;;;;;;;1.03;1.03;;;5.90;45.20;;;;;;20921;6720;118843;-76
2023/01/16 08:05:04;;;;;;;0.70;0.70;;;5.90;45.80;;;;;;20943;6720;117221;-76
2023/01/16 08:07:44;;;;;;;2.07;1.60;;;5.70;45.50;;;;;;20721;6720;305079;-76
2023/01/16 08:10:16;;;;;;;1.87;0.73;;;5.70;45.50;;;;;;20826;6720;117435;-75
2023/01/16 08:12:52;;;;;;;2.57;1.20;;;5.70;46.00;;;;;;20721;6720;304815;-76
2023/01/16 08:15:30;;;;;;;1.85;0.80;;;5.80;45.00;;;;;;20734;6719;307928;-76
2023/01/16 08:18:06;;;;;;;1.33;0.80;;;6.10;44.00;;;;;;20849;6749;116611;-76
2023/01/16 08:20:41;;;;;;;0.90;0.90;;;6.10;44.60;;;;;;20598;6826;117301;-76
2023/01/16 08:23:14;;;;;;;1.08;0.98;;;5.80;45.40;;;;;;20635;6750;335108;-77
2023/01/16 08:25:52;;;;;;;2.92;0.93;;;6.20;43.40;;;;;;20643;6750;344069;-77
2023/01/16 08:28:26;;;;;;;1.23;0.70;;;6.20;43.40;;;;;;20827;6742;117444;-76
2023/01/16 08:31:07;;;;;;;0.90;0.90;;;6.10;43.90;;;;;;20802;6770;117879;-75
2023/01/16 08:33:41;;;;;;;0.87;0.83;;;5.90;44.80;;;;;;20844;6750;120734;-75
2023/01/16 08:36:16;;;;;;;0.80;0.80;;;5.70;45.60;;;;;;20874;6768;120522;-75
2023/01/16 08:38:52;;;;;;;2.03;0.90;;;5.50;46.10;;;;;;20680;6783;121274;-76
2023/01/16 08:53:09;;;;;;;1.33;1.00;;;6.10;42.60;;;;;;20373;6818;123657;-78
2023/01/16 08:55:45;;;;;;;0.60;0.60;;;6.10;43.50;;;;;;20857;6747;116763;-77
2023/01/16 08:58:21;;;;;;;1.20;0.90;;;5.80;44.40;;;;;;20829;6748;117293;-75
2023/01/16 09:00:57;;;;;;;1.50;1.40;;;5.80;43.60;;;;;;20599;6761;309604;-78
2023/01/16 09:03:36;;;;;;;0.93;0.93;;;5.90;44.10;;;;;;20909;6731;117093;-77
2023/01/16 09:06:11;;;;;;;1.30;1.20;;;5.90;44.80;;;;;;20905;6729;116553;-78
2023/01/16 09:08:49;;;;;;;0.83;0.83;;;5.80;44.80;;;;;;20831;6729;118287;-75
2023/01/16 09:14:20;;;;;;;0.80;0.80;;;5.80;43.70;;;;;;20839;6744;117148;-75
2023/01/16 09:16:55;;;;;;;0.90;0.90;;;5.90;44.20;;;;;;20867;6744;116778;-73
2023/01/16 09:19:31;;;;;;;0.80;0.70;;;5.80;44.90;;;;;;20548;6744;278502;-74
2023/01/16 09:22:07;;;;;;;0.90;0.90;;;6.30;42.70;;;;;;20706;6744;275493;-73
2023/01/16 09:24:43;;;;;;;1.10;1.10;;;6.30;41.80;;;;;;20910;6741;120993;-74
2023/01/16 09:27:19;;;;;;;1.20;1.10;;;6.30;42.70;;;;;;20668;6740;327540;-74
2023/01/16 09:29:54;;;;;;;0.50;0.50;;;6.50;41.80;;;;;;20788;6729;116950;-75
2023/01/16 09:32:30;;;;;;;0.90;0.90;;;6.40;42.40;;;;;;20681;6729;305140;-74
2023/01/16 09:35:07;;;;;;;0.73;0.73;;;6.50;41.20;;;;;;20894;6739;116576;-74
2023/01/16 09:37:43;;;;;;;0.80;0.80;;;6.40;42.00;;;;;;20893;6739;116626;-75
2023/01/16 09:40:19;;;;;;;0.70;0.60;;;6.20;42.80;;;;;;20443;6739;274709;-78
2023/01/16 09:46:13;;;;;;;0.60;0.60;;;6.30;42.30;;;;;;20317;6807;122542;-75
2023/01/16 09:48:56;;;;;;;1.00;0.70;;;6.10;43.20;;;;;;20562;6759;277920;-75
2023/01/16 09:51:34;;;;;;;0.80;0.80;;;6.30;41.90;;;;;;20666;6744;280883;-76
2023/01/16 10:00:09;;;;;;;2.07;1.97;;;6.60;41.30;;;;;;20732;6744;116906;-75
2023/01/16 10:02:46;;;;;;;0.80;0.80;;;6.40;42.90;;;;;;20895;6744;119483;-75
2023/01/16 10:05:21;;;;;;;0.90;0.90;;;6.30;42.10;;;;;;20693;6744;304625;-75
2023/01/16 10:08:00;;;;;;;2.00;0.77;;;6.50;40.40;;;;;;20694;6744;303408;-75
2023/01/16 10:10:36;;;;;;;1.00;0.90;;;6.80;39.20;;;;;;20401;6744;278052;-75
2023/01/16 10:13:14;;;;;;;1.10;1.00;;;7.20;38.90;;;;;;20854;6744;117339;-75
2023/01/16 10:16:17;;;;;;;0.93;0.77;;;7.10;39.90;;;;;;20571;6804;334639;-75
2023/01/16 10:19:12;;;;;;;1.60;0.90;;;7.00;39.70;;;;;;20739;6769;118378;-75
2023/01/16 10:21:51;;;;;;;1.63;0.80;;;7.00;39.70;;;;;;20842;6752;116848;-77
2023/01/16 10:24:43;;;;;;;0.85;0.85;;;6.80;39.00;;;;;;20617;6752;305942;-83
2023/01/16 10:27:33;;;;;;;1.23;0.90;;;6.80;39.00;;;;;;20632;6752;314643;-78
2023/01/16 10:30:14;;;;;;;1.10;0.83;;;7.20;38.00;;;;;;20499;6752;306939;-75
2023/01/16 10:33:12;;;;;;;0.87;0.87;;;7.50;37.60;;;;;;20791;6761;116770;-78
2023/01/16 10:35:41;;;;;;;0.83;0.80;;;7.40;38.80;;;;;;20604;6761;306113;-77
2023/01/16 10:38:27;;;;;;;1.23;0.87;;;7.50;37.90;;;;;;20812;6761;120468;-76
2023/01/16 10:40:58;;;;;;;0.60;0.60;;;7.40;39.10;;;;;;20855;6751;116773;-73
2023/01/16 10:49:28;;;;;;;0.70;0.50;;;7.20;40.50;;;;;;20560;6752;336598;-74
2023/01/16 10:52:03;;;;;;;0.40;0.40;;;7.40;39.60;;;;;;20673;6742;333980;-74
2023/01/16 10:54:39;;;;;;;1.00;0.50;;;7.80;39.40;;;;;;20871;6742;121894;-75
2023/01/16 10:57:15;;;;;;;0.40;0.40;;;7.80;40.30;;;;;;20683;6742;309302;-77
2023/01/16 10:59:50;;;;;;;0.50;0.50;;;7.90;39.80;;;;;;20759;6742;117390;-75
2023/01/16 11:02:29;;;;;;;0.50;0.50;;;7.80;40.60;;;;;;20598;6761;305672;-75
2023/01/16 11:05:25;;;;;;;0.50;0.50;;;7.90;39.30;;;;;;20605;6761;328622;-76
2023/01/16 11:08:07;;;;;;;0.50;0.47;;;8.20;39.20;;;;;;20811;6761;116742;-74
2023/01/16 11:10:48;;;;;;;1.00;0.97;;;8.10;40.40;;;;;;20562;6835;119932;-74
2023/01/16 11:19:18;;;;;;;0.40;0.40;;;7.90;41.80;;;;;;20759;6757;120980;-73
2023/01/16 11:21:54;;;;;;;1.30;0.83;;;7.60;42.70;;;;;;20829;6757;116796;-73
2023/01/16 11:24:33;;;;;;;0.50;0.43;;;7.50;43.30;;;;;;20821;6757;121096;-73
2023/01/16 11:27:10;;;;;;;0.40;0.40;;;7.30;43.70;;;;;;20603;6757;309249;-75
2023/01/16 11:29:43;;;;;;;0.57;0.45;;;7.50;43.40;;;;;;20521;6757;310809;-76
2023/01/16 11:32:24;;;;;;;0.40;0.40;;;7.90;43.10;;;;;;20804;6757;116731;-75
2023/01/16 11:34:58;;;;;;;1.20;0.40;;;7.90;43.60;;;;;;20824;6757;116960;-75
2023/01/16 11:37:35;;;;;;;0.70;0.50;;;7.80;44.60;;;;;;20613;6757;335280;-75
2023/01/16 11:40:17;;;;;;;0.73;0.40;;;7.70;44.20;;;;;;20725;6757;120160;-75
2023/01/16 11:46:02;;;;;;;0.55;0.50;;;7.90;44.70;;;;;;20622;6757;337514;-78
2023/01/16 11:48:41;;;;;;;0.63;0.63;;;8.30;44.50;;;;;;20800;6757;116994;-77
2023/01/16 11:51:16;;;;;;;0.90;0.90;;;8.20;45.10;;;;;;20828;6756;117524;-77
2023/01/16 11:53:52;;;;;;;2.20;0.90;;;8.00;46.00;;;;;;20618;6756;336853;-76
2023/01/16 11:56:33;;;;;;;0.50;0.50;;;8.10;46.20;;;;;;20811;6756;116715;-76
2023/01/16 11:59:19;;;;;;;0.60;0.60;;;8.20;46.60;;;;;;20777;6756;117333;-73
2023/01/16 12:02:21;;;;;;;1.40;1.40;;;8.00;46.90;;;;;;20824;6756;116799;-76
2023/01/16 12:08:22;;;;;;;0.57;0.57;;;8.10;46.00;;;;;;20592;6757;276070;-76
2023/01/16 12:11:06;;;;;;;0.50;0.50;;;8.60;45.00;;;;;;20614;6757;305748;-72
2023/01/16 12:14:18;;;;;;;0.70;0.70;;;8.90;44.60;;;;;;20827;6757;120731;-78
2023/01/16 12:17:17;;;;;;;0.43;0.43;;;8.80;45.20;;;;;;20873;6742;117299;-73
2023/01/16 12:20:10;;;;;;;0.80;0.80;;;8.50;46.00;;;;;;20785;6742;117913;-75
2023/01/16 12:23:24;;;;;;;0.67;0.67;;;8.30;46.80;;;;;;20809;6756;117732;-77
2023/01/16 12:26:14;;;;;;;0.40;0.40;;;8.10;47.30;;;;;;20622;6757;304832;-73
2023/01/16 12:28:53;;;;;;;0.50;0.50;;;8.40;46.00;;;;;;20799;6757;117687;-73
2023/01/16 12:31:44;;;;;;;0.90;0.60;;;8.40;46.50;;;;;;20865;6747;117296;-74
2023/01/16 12:34:40;;;;;;;0.40;0.40;;;8.20;47.00;;;;;;20895;6748;116775;-76
2023/01/16 12:37:36;;;;;;;0.60;0.60;;;8.00;48.10;;;;;;20816;6767;117083;-73
2023/01/16 12:40:45;;;;;;;0.50;0.50;;;8.30;47.00;;;;;;20508;6743;299183;-74
2023/01/16 12:43:35;;;;;;;1.63;0.50;;;8.30;47.00;;;;;;20922;6728;116684;-74
2023/01/16 12:46:20;;;;;;;0.47;0.47;;;8.40;47.40;;;;;;20937;6723;117070;-73
2023/01/16 12:49:19;;;;;;;0.30;0.30;;;8.20;48.20;;;;;;20880;6723;117558;-74
2023/01/16 12:52:01;;;;;;;0.47;0.47;;;8.10;48.10;;;;;;20936;6738;123146;-74
2023/01/16 12:54:58;;;;;;;0.50;0.40;;;8.40;47.20;;;;;;20660;6738;284644;-73
2023/01/16 12:57:50;;;;;;;0.40;0.30;;;8.40;47.20;;;;;;20727;6723;302111;-74
2023/01/16 13:00:29;;;;;;;0.40;0.40;;;8.90;45.60;;;;;;20387;6867;119429;-74
2023/01/16 13:03:27;;;;;;;1.00;0.32;;;8.90;46.00;;;;;;20586;6765;307593;-74
2023/01/16 13:06:04;;;;;;;1.40;0.55;;;9.00;45.00;;;;;;20625;6752;336721;-75
2023/01/16 13:08:40;;;;;;;0.90;0.90;;;9.30;44.70;;;;;;20803;6749;118026;-73
2023/01/16 13:14:11;;;;;;;0.87;0.87;;;9.10;46.20;;;;;;20757;6771;120360;-74
2023/01/16 13:16:59;;;;;;;1.95;1.85;;;8.80;46.80;;;;;;20597;6756;328517;-74
2023/01/16 13:19:36;;;;;;;7.30;7.00;;;8.90;45.50;;;;;;20746;6759;117143;-74
2023/01/16 13:22:22;;;;;;;4.27;4.10;;;9.00;46.00;;;;;;20899;6732;116859;-75
2023/01/16 13:24:59;;;;;;;0.95;0.95;;;8.80;46.50;;;;;;20648;6798;311170;-74
2023/01/16 13:27:43;;;;;;;0.70;0.70;;;9.00;44.70;;;;;;20710;6726;305933;-74
2023/01/16 13:30:15;;;;;;;0.60;0.60;;;9.30;43.70;;;;;;20744;6725;117721;-74
2023/01/16 13:32:57;;;;;;;0.40;0.40;;;9.40;44.60;;;;;;20712;6725;305205;-74
2023/01/16 13:35:59;;;;;;;0.70;0.70;;;9.50;44.00;;;;;;20660;6742;280242;-74
2023/01/16 13:39:01;;;;;;;0.60;0.60;;;9.80;43.30;;;;;;20719;6725;278476;-73
2023/01/16 13:41:39;;;;;;;0.50;0.50;;;10.20;41.50;;;;;;20892;6735;116951;-73
2023/01/16 13:47:10;;;;;;;1.00;1.00;;;10.10;41.30;;;;;;20934;6726;117820;-73
2023/01/16 13:49:53;;;;;;;1.10;0.70;;;10.00;41.10;;;;;;20589;6725;281628;-74
2023/01/16 13:52:29;;;;;;;1.10;0.60;;;10.00;41.10;;;;;;20741;6710;334001;-74
2023/01/16 13:55:06;;;;;;;0.50;0.50;;;10.50;41.00;;;;;;20737;6719;278094;-74
2023/01/16 13:57:41;;;;;;;0.43;0.43;;;10.50;40.30;;;;;;20721;6725;277874;-73
2023/01/16 14:00:17;;;;;;;0.40;0.40;;;10.70;39.10;;;;;;20621;6719;335809;-75
2023/01/16 14:02:59;;;;;;;0.50;0.50;;;10.70;39.10;;;;;;20969;6710;116879;-73
2023/01/16 14:05:35;;;;;;;0.37;0.37;;;10.20;39.30;;;;;;20743;6719;323369;-75
2023/01/16 14:11:37;;;;;;;0.50;0.50;;;9.90;41.40;;;;;;20952;6719;116919;-72
2023/01/16 14:16:30;;;;;;;0.40;0.40;;;9.40;42.80;;;;;;20991;6709;116537;-71
2023/01/16 14:17:00;;;;;;;0.40;0.40;;;9.10;43.60;;;;;;20939;6761;117124;-73
2023/01/16 14:19:40;;;;;;;0.70;0.50;;;8.90;44.50;;;;;;20618;6725;307829;-72
2023/01/16 14:24:48;;;;;;;0.50;0.50;;;9.10;44.10;;;;;;20379;6791;309272;-73
2023/01/16 14:27:24;;;;;;;4.27;3.87;;;9.20;43.20;;;;;;20892;6740;116686;-72
2023/01/16 14:29:59;;;;;;;1.00;1.00;;;9.30;44.00;;;;;;20791;6740;117035;-73
2023/01/16 14:32:35;;;;;;;1.93;0.80;;;9.10;44.50;;;;;;20908;6725;117646;-74
2023/01/16 14:35:11;;;;;;;0.53;0.50;;;9.00;45.00;;;;;;20930;6740;117035;-75
2023/01/16 14:37:53;;;;;;;1.87;1.67;;;8.80;45.30;;;;;;20698;6738;276655;-74
2023/01/16 14:55:56;;;;;;;1.30;1.20;;;9.50;43.00;;;;;;20660;6732;336583;-75
2023/01/16 14:58:35;;;;;;;0.90;0.90;;;9.50;43.00;;;;;;20553;6759;309187;-75
2023/01/16 15:04:26;;;;;;;0.70;0.70;;;9.50;43.10;;;;;;20682;6742;305183;-74
2023/01/16 15:07:01;;;;;;;1.10;1.00;;;9.50;42.50;;;;;;20644;6748;310193;-73
2023/01/16 15:09:38;;;;;;;2.83;2.63;;;9.60;42.00;;;;;;20568;6731;308469;-77
2023/01/16 15:12:14;;;;;;;1.27;1.20;;;9.60;41.60;;;;;;20914;6739;117372;-78